sensor_id;sensor_type;location;lat;lon;timestamp;P1;durP1;ratioP1;P2;durP2;ratioP2
47894;SDS011;33653;52.302;8.134;2023-08-07T00:00:30;9.27;;;2.05;;
47894;SDS011;33653;52.302;8.134;2023-08-07T00:02:59;6.38;;;2.05;;
47894;SDS011;33653;52.302;8.134;2023-08-07T00:05:27;5.22;;;1.92;;
47894;SDS011;33653;52.302;8.134;2023-08-07T00:07:57;8.32;;;2.08;;
47894;SDS011;33653;52.302;8.134;2023-08-07T00:10:25;2.90;;;1.90;;
47894;SDS011;33653;52.302;8.134;2023-08-07T00:12:54;3.47;;;2.13;;
47894;SDS011;33653;52.302;8.134;2023-08-07T00:15:22;5.88;;;2.20;;
47894;SDS011;33653;52.302;8.134;2023-08-07T00:17:50;3.15;;;2.03;;
47894;SDS011;33653;52.302;8.134;2023-08-07T00:20:19;9.18;;;2.35;;
47894;SDS011;33653;52.302;8.134;2023-08-07T00:22:47;5.43;;;2.42;;
47894;SDS011;33653;52.302;8.134;2023-08-07T00:25:16;3.70;;;2.70;;
47894;SDS011;33653;52.302;8.134;2023-08-07T00:27:44;4.32;;;2.47;;
47894;SDS011;33653;52.302;8.134;2023-08-07T00:30:13;5.90;;;2.63;;
47894;SDS011;33653;52.302;8.134;2023-08-07T00:32:42;2.53;;;1.92;;
47894;SDS011;33653;52.302;8.134;2023-08-07T00:35:10;5.25;;;2.67;;
47894;SDS011;33653;52.302;8.134;2023-08-07T00:37:38;4.20;;;2.65;;
47894;SDS011;33653;52.302;8.134;2023-08-07T00:40:07;3.30;;;2.38;;
47894;SDS011;33653;52.302;8.134;2023-08-07T00:42:37;9.23;;;2.45;;
47894;SDS011;33653;52.302;8.134;2023-08-07T00:45:05;4.45;;;2.78;;
47894;SDS011;33653;52.302;8.134;2023-08-07T00:47:34;4.50;;;2.58;;
47894;SDS011;33653;52.302;8.134;2023-08-07T00:50:02;3.97;;;2.85;;
47894;SDS011;33653;52.302;8.134;2023-08-07T00:52:32;7.97;;;3.08;;
47894;SDS011;33653;52.302;8.134;2023-08-07T00:55:00;7.72;;;2.45;;
47894;SDS011;33653;52.302;8.134;2023-08-07T00:57:29;5.07;;;2.75;;
47894;SDS011;33653;52.302;8.134;2023-08-07T00:59:59;7.63;;;3.20;;
47894;SDS011;33653;52.302;8.134;2023-08-07T01:02:27;6.88;;;3.10;;
47894;SDS011;33653;52.302;8.134;2023-08-07T01:04:56;4.07;;;2.80;;
47894;SDS011;33653;52.302;8.134;2023-08-07T01:07:24;4.80;;;2.83;;
47894;SDS011;33653;52.302;8.134;2023-08-07T01:09:52;5.50;;;3.20;;
47894;SDS011;33653;52.302;8.134;2023-08-07T01:12:23;6.80;;;3.70;;
47894;SDS011;33653;52.302;8.134;2023-08-07T01:17:41;6.57;;;3.80;;
47894;SDS011;33653;52.302;8.134;2023-08-07T01:20:11;4.25;;;3.40;;
47894;SDS011;33653;52.302;8.134;2023-08-07T01:22:39;4.28;;;3.35;;
47894;SDS011;33653;52.302;8.134;2023-08-07T01:25:08;4.63;;;3.13;;
47894;SDS011;33653;52.302;8.134;2023-08-07T01:27:55;6.37;;;3.63;;
47894;SDS011;33653;52.302;8.134;2023-08-07T01:31:07;6.30;;;3.08;;
47894;SDS011;33653;52.302;8.134;2023-08-07T01:33:49;10.63;;;3.75;;
47894;SDS011;33653;52.302;8.134;2023-08-07T01:36:28;4.18;;;2.88;;
47894;SDS011;33653;52.302;8.134;2023-08-07T01:38:58;8.45;;;4.18;;
47894;SDS011;33653;52.302;8.134;2023-08-07T01:41:29;4.53;;;3.30;;
47894;SDS011;33653;52.302;8.134;2023-08-07T01:43:58;7.55;;;4.05;;
47894;SDS011;33653;52.302;8.134;2023-08-07T01:46:26;6.45;;;3.53;;
47894;SDS011;33653;52.302;8.134;2023-08-07T01:48:55;6.15;;;3.65;;
47894;SDS011;33653;52.302;8.134;2023-08-07T01:51:23;6.47;;;3.40;;
47894;SDS011;33653;52.302;8.134;2023-08-07T01:53:51;5.00;;;3.63;;
47894;SDS011;33653;52.302;8.134;2023-08-07T01:56:20;7.07;;;4.53;;
47894;SDS011;33653;52.302;8.134;2023-08-07T01:58:48;8.10;;;3.83;;
47894;SDS011;33653;52.302;8.134;2023-08-07T02:01:17;12.95;;;4.55;;
47894;SDS011;33653;52.302;8.134;2023-08-07T02:03:45;9.23;;;3.97;;
47894;SDS011;33653;52.302;8.134;2023-08-07T02:06:13;8.38;;;4.60;;
47894;SDS011;33653;52.302;8.134;2023-08-07T02:08:41;7.93;;;4.22;;
47894;SDS011;33653;52.302;8.134;2023-08-07T02:11:11;12.75;;;4.97;;
47894;SDS011;33653;52.302;8.134;2023-08-07T02:13:40;7.38;;;4.30;;
47894;SDS011;33653;52.302;8.134;2023-08-07T02:16:08;6.47;;;3.97;;
47894;SDS011;33653;52.302;8.134;2023-08-07T02:18:36;6.97;;;4.95;;
47894;SDS011;33653;52.302;8.134;2023-08-07T02:21:05;8.30;;;4.45;;
47894;SDS011;33653;52.302;8.134;2023-08-07T02:23:35;4.70;;;3.22;;
47894;SDS011;33653;52.302;8.134;2023-08-07T02:26:03;8.38;;;4.10;;
47894;SDS011;33653;52.302;8.134;2023-08-07T02:28:31;8.95;;;4.47;;
47894;SDS011;33653;52.302;8.134;2023-08-07T02:31:01;8.18;;;4.70;;
47894;SDS011;33653;52.302;8.134;2023-08-07T02:33:29;8.60;;;4.97;;
47894;SDS011;33653;52.302;8.134;2023-08-07T02:35:59;10.15;;;4.68;;
47894;SDS011;33653;52.302;8.134;2023-08-07T02:38:27;6.72;;;5.03;;
47894;SDS011;33653;52.302;8.134;2023-08-07T02:40:55;6.90;;;4.63;;
47894;SDS011;33653;52.302;8.134;2023-08-07T02:43:24;7.47;;;5.22;;
47894;SDS011;33653;52.302;8.134;2023-08-07T02:45:54;7.68;;;4.78;;
47894;SDS011;33653;52.302;8.134;2023-08-07T02:48:22;10.07;;;5.03;;
47894;SDS011;33653;52.302;8.134;2023-08-07T02:50:51;7.53;;;4.95;;
47894;SDS011;33653;52.302;8.134;2023-08-07T02:53:20;8.85;;;4.55;;
47894;SDS011;33653;52.302;8.134;2023-08-07T02:55:48;10.93;;;5.10;;
47894;SDS011;33653;52.302;8.134;2023-08-07T02:58:17;8.80;;;4.88;;
47894;SDS011;33653;52.302;8.134;2023-08-07T03:00:45;6.78;;;4.40;;
47894;SDS011;33653;52.302;8.134;2023-08-07T03:03:14;8.17;;;4.83;;
47894;SDS011;33653;52.302;8.134;2023-08-07T03:05:51;8.48;;;5.03;;
47894;SDS011;33653;52.302;8.134;2023-08-07T03:08:19;6.13;;;4.53;;
47894;SDS011;33653;52.302;8.134;2023-08-07T03:10:54;7.72;;;4.78;;
47894;SDS011;33653;52.302;8.134;2023-08-07T03:13:25;4.70;;;3.63;;
47894;SDS011;33653;52.302;8.134;2023-08-07T03:16:00;8.63;;;4.88;;
47894;SDS011;33653;52.302;8.134;2023-08-07T03:18:33;8.73;;;4.32;;
47894;SDS011;33653;52.302;8.134;2023-08-07T03:21:02;6.80;;;4.47;;
47894;SDS011;33653;52.302;8.134;2023-08-07T03:23:30;5.80;;;4.28;;
47894;SDS011;33653;52.302;8.134;2023-08-07T03:26:06;7.97;;;4.38;;
47894;SDS011;33653;52.302;8.134;2023-08-07T03:28:40;8.05;;;4.18;;
47894;SDS011;33653;52.302;8.134;2023-08-07T03:31:08;5.90;;;4.05;;
47894;SDS011;33653;52.302;8.134;2023-08-07T03:33:37;5.00;;;3.67;;
47894;SDS011;33653;52.302;8.134;2023-08-07T03:36:06;7.25;;;3.67;;
47894;SDS011;33653;52.302;8.134;2023-08-07T03:38:34;5.93;;;3.67;;
47894;SDS011;33653;52.302;8.134;2023-08-07T03:41:03;5.10;;;3.78;;
47894;SDS011;33653;52.302;8.134;2023-08-07T03:43:32;6.25;;;3.97;;
47894;SDS011;33653;52.302;8.134;2023-08-07T03:46:00;8.35;;;3.63;;
47894;SDS011;33653;52.302;8.134;2023-08-07T03:48:30;7.50;;;3.47;;
47894;SDS011;33653;52.302;8.134;2023-08-07T03:51:04;6.22;;;3.50;;
47894;SDS011;33653;52.302;8.134;2023-08-07T03:53:47;9.20;;;3.53;;
47894;SDS011;33653;52.302;8.134;2023-08-07T03:56:16;6.88;;;3.75;;
47894;SDS011;33653;52.302;8.134;2023-08-07T03:58:44;6.22;;;3.78;;
47894;SDS011;33653;52.302;8.134;2023-08-07T04:01:13;6.45;;;3.65;;
47894;SDS011;33653;52.302;8.134;2023-08-07T04:03:41;7.18;;;4.28;;
47894;SDS011;33653;52.302;8.134;2023-08-07T04:06:10;8.00;;;3.58;;
47894;SDS011;33653;52.302;8.134;2023-08-07T04:08:44;5.25;;;3.40;;
47894;SDS011;33653;52.302;8.134;2023-08-07T04:11:13;10.00;;;3.75;;
47894;SDS011;33653;52.302;8.134;2023-08-07T04:13:41;7.32;;;3.90;;
47894;SDS011;33653;52.302;8.134;2023-08-07T04:16:10;4.35;;;3.35;;
47894;SDS011;33653;52.302;8.134;2023-08-07T04:18:38;4.70;;;3.25;;
47894;SDS011;33653;52.302;8.134;2023-08-07T04:21:06;5.65;;;3.67;;
47894;SDS011;33653;52.302;8.134;2023-08-07T04:23:35;4.15;;;3.22;;
47894;SDS011;33653;52.302;8.134;2023-08-07T04:26:03;5.35;;;4.30;;
47894;SDS011;33653;52.302;8.134;2023-08-07T04:28:31;10.05;;;3.40;;
47894;SDS011;33653;52.302;8.134;2023-08-07T04:31:01;3.55;;;3.05;;
47894;SDS011;33653;52.302;8.134;2023-08-07T04:33:29;5.05;;;3.38;;
47894;SDS011;33653;52.302;8.134;2023-08-07T04:35:58;4.00;;;3.35;;
47894;SDS011;33653;52.302;8.134;2023-08-07T04:38:26;5.18;;;3.38;;
47894;SDS011;33653;52.302;8.134;2023-08-07T04:40:54;3.95;;;3.00;;
47894;SDS011;33653;52.302;8.134;2023-08-07T04:43:22;8.02;;;3.13;;
47894;SDS011;33653;52.302;8.134;2023-08-07T04:45:51;5.85;;;2.90;;
47894;SDS011;33653;52.302;8.134;2023-08-07T04:48:20;6.60;;;2.85;;
47894;SDS011;33653;52.302;8.134;2023-08-07T04:50:52;7.75;;;2.83;;
47894;SDS011;33653;52.302;8.134;2023-08-07T04:53:20;5.50;;;2.47;;
47894;SDS011;33653;52.302;8.134;2023-08-07T04:55:48;3.72;;;2.78;;
47894;SDS011;33653;52.302;8.134;2023-08-07T04:58:17;9.93;;;2.70;;
47894;SDS011;33653;52.302;8.134;2023-08-07T05:00:45;4.88;;;2.78;;
47894;SDS011;33653;52.302;8.134;2023-08-07T05:03:14;5.78;;;2.63;;
47894;SDS011;33653;52.302;8.134;2023-08-07T05:05:42;9.18;;;2.30;;
47894;SDS011;33653;52.302;8.134;2023-08-07T05:08:11;4.80;;;2.67;;
47894;SDS011;33653;52.302;8.134;2023-08-07T05:10:39;6.63;;;2.33;;
47894;SDS011;33653;52.302;8.134;2023-08-07T05:13:07;5.63;;;2.38;;
47894;SDS011;33653;52.302;8.134;2023-08-07T05:15:36;3.97;;;2.55;;
47894;SDS011;33653;52.302;8.134;2023-08-07T05:18:04;7.65;;;2.10;;
47894;SDS011;33653;52.302;8.134;2023-08-07T05:20:32;6.35;;;2.33;;
47894;SDS011;33653;52.302;8.134;2023-08-07T05:23:01;4.15;;;2.60;;
47894;SDS011;33653;52.302;8.134;2023-08-07T05:25:29;10.63;;;2.03;;
47894;SDS011;33653;52.302;8.134;2023-08-07T05:27:57;5.25;;;2.28;;
47894;SDS011;33653;52.302;8.134;2023-08-07T05:30:25;6.38;;;2.15;;
47894;SDS011;33653;52.302;8.134;2023-08-07T05:32:54;7.15;;;2.25;;
47894;SDS011;33653;52.302;8.134;2023-08-07T05:35:22;6.00;;;2.13;;
47894;SDS011;33653;52.302;8.134;2023-08-07T05:37:51;4.38;;;1.88;;
47894;SDS011;33653;52.302;8.134;2023-08-07T05:40:19;3.28;;;2.08;;
47894;SDS011;33653;52.302;8.134;2023-08-07T05:42:47;5.72;;;2.00;;
47894;SDS011;33653;52.302;8.134;2023-08-07T05:45:16;4.57;;;2.40;;
47894;SDS011;33653;52.302;8.134;2023-08-07T05:47:44;3.67;;;2.00;;
47894;SDS011;33653;52.302;8.134;2023-08-07T05:50:13;2.85;;;1.50;;
47894;SDS011;33653;52.302;8.134;2023-08-07T05:52:41;9.43;;;2.10;;
47894;SDS011;33653;52.302;8.134;2023-08-07T05:55:10;3.08;;;1.48;;
47894;SDS011;33653;52.302;8.134;2023-08-07T05:57:38;4.22;;;2.00;;
47894;SDS011;33653;52.302;8.134;2023-08-07T06:00:07;4.13;;;1.80;;
47894;SDS011;33653;52.302;8.134;2023-08-07T06:02:41;2.35;;;1.25;;
47894;SDS011;33653;52.302;8.134;2023-08-07T06:05:09;4.97;;;1.73;;
47894;SDS011;33653;52.302;8.134;2023-08-07T06:07:40;3.10;;;1.55;;
47894;SDS011;33653;52.302;8.134;2023-08-07T06:10:09;3.55;;;1.73;;
47894;SDS011;33653;52.302;8.134;2023-08-07T06:12:37;5.60;;;1.77;;
47894;SDS011;33653;52.302;8.134;2023-08-07T06:15:06;4.25;;;1.50;;
47894;SDS011;33653;52.302;8.134;2023-08-07T06:17:35;5.57;;;2.17;;
47894;SDS011;33653;52.302;8.134;2023-08-07T06:20:03;4.45;;;1.55;;
47894;SDS011;33653;52.302;8.134;2023-08-07T06:22:38;5.90;;;1.50;;
47894;SDS011;33653;52.302;8.134;2023-08-07T06:25:07;5.18;;;1.65;;
47894;SDS011;33653;52.302;8.134;2023-08-07T06:27:36;3.08;;;1.70;;
47894;SDS011;33653;52.302;8.134;2023-08-07T06:30:04;5.40;;;1.40;;
47894;SDS011;33653;52.302;8.134;2023-08-07T06:32:33;2.95;;;1.70;;
47894;SDS011;33653;52.302;8.134;2023-08-07T06:35:04;4.95;;;1.73;;
47894;SDS011;33653;52.302;8.134;2023-08-07T06:37:32;4.80;;;1.95;;
47894;SDS011;33653;52.302;8.134;2023-08-07T06:40:01;3.95;;;2.22;;
47894;SDS011;33653;52.302;8.134;2023-08-07T06:42:29;6.03;;;2.03;;
47894;SDS011;33653;52.302;8.134;2023-08-07T06:44:58;2.33;;;1.70;;
47894;SDS011;33653;52.302;8.134;2023-08-07T06:47:26;9.25;;;2.92;;
47894;SDS011;33653;52.302;8.134;2023-08-07T06:49:54;6.13;;;2.25;;
47894;SDS011;33653;52.302;8.134;2023-08-07T06:52:23;7.35;;;2.17;;
47894;SDS011;33653;52.302;8.134;2023-08-07T06:54:51;4.88;;;2.10;;
47894;SDS011;33653;52.302;8.134;2023-08-07T06:57:19;9.38;;;2.22;;
47894;SDS011;33653;52.302;8.134;2023-08-07T06:59:47;7.55;;;2.40;;
47894;SDS011;33653;52.302;8.134;2023-08-07T07:02:16;6.05;;;1.98;;
47894;SDS011;33653;52.302;8.134;2023-08-07T07:04:44;4.72;;;2.42;;
47894;SDS011;33653;52.302;8.134;2023-08-07T07:07:13;3.38;;;2.25;;
47894;SDS011;33653;52.302;8.134;2023-08-07T07:09:42;3.47;;;2.28;;
47894;SDS011;33653;52.302;8.134;2023-08-07T07:12:10;3.30;;;2.00;;
47894;SDS011;33653;52.302;8.134;2023-08-07T07:14:38;4.63;;;1.98;;
47894;SDS011;33653;52.302;8.134;2023-08-07T07:17:07;5.60;;;2.20;;
47894;SDS011;33653;52.302;8.134;2023-08-07T07:19:35;2.08;;;1.65;;
47894;SDS011;33653;52.302;8.134;2023-08-07T07:22:03;5.63;;;2.10;;
47894;SDS011;33653;52.302;8.134;2023-08-07T07:24:32;4.15;;;2.20;;
47894;SDS011;33653;52.302;8.134;2023-08-07T07:27:00;2.95;;;2.22;;
47894;SDS011;33653;52.302;8.134;2023-08-07T07:29:29;2.67;;;1.90;;
47894;SDS011;33653;52.302;8.134;2023-08-07T07:31:57;2.10;;;1.73;;
47894;SDS011;33653;52.302;8.134;2023-08-07T07:34:26;2.92;;;2.03;;
47894;SDS011;33653;52.302;8.134;2023-08-07T07:36:55;4.28;;;1.80;;
47894;SDS011;33653;52.302;8.134;2023-08-07T07:39:24;3.47;;;2.33;;
47894;SDS011;33653;52.302;8.134;2023-08-07T07:41:52;4.13;;;1.75;;
47894;SDS011;33653;52.302;8.134;2023-08-07T07:44:21;3.55;;;1.95;;
47894;SDS011;33653;52.302;8.134;2023-08-07T07:46:49;5.05;;;2.05;;
47894;SDS011;33653;52.302;8.134;2023-08-07T07:49:18;8.60;;;2.53;;
47894;SDS011;33653;52.302;8.134;2023-08-07T07:51:46;3.45;;;1.83;;
47894;SDS011;33653;52.302;8.134;2023-08-07T07:54:15;8.30;;;2.10;;
47894;SDS011;33653;52.302;8.134;2023-08-07T07:56:44;5.10;;;1.90;;
47894;SDS011;33653;52.302;8.134;2023-08-07T07:59:12;3.97;;;1.52;;
47894;SDS011;33653;52.302;8.134;2023-08-07T08:01:40;4.88;;;2.33;;
47894;SDS011;33653;52.302;8.134;2023-08-07T08:04:09;4.20;;;1.70;;
47894;SDS011;33653;52.302;8.134;2023-08-07T08:06:39;5.68;;;1.52;;
47894;SDS011;33653;52.302;8.134;2023-08-07T08:09:07;5.63;;;1.97;;
47894;SDS011;33653;52.302;8.134;2023-08-07T08:11:37;6.43;;;2.10;;
47894;SDS011;33653;52.302;8.134;2023-08-07T08:14:05;4.25;;;2.05;;
47894;SDS011;33653;52.302;8.134;2023-08-07T08:16:33;5.22;;;1.98;;
47894;SDS011;33653;52.302;8.134;2023-08-07T08:19:02;8.60;;;1.70;;
47894;SDS011;33653;52.302;8.134;2023-08-07T08:21:30;4.28;;;1.88;;
47894;SDS011;33653;52.302;8.134;2023-08-07T08:23:59;6.55;;;1.85;;
47894;SDS011;33653;52.302;8.134;2023-08-07T08:26:27;4.22;;;1.85;;
47894;SDS011;33653;52.302;8.134;2023-08-07T08:28:55;6.00;;;1.85;;
47894;SDS011;33653;52.302;8.134;2023-08-07T08:31:24;6.95;;;2.30;;
47894;SDS011;33653;52.302;8.134;2023-08-07T08:33:52;5.05;;;1.70;;
47894;SDS011;33653;52.302;8.134;2023-08-07T08:36:20;5.45;;;2.33;;
47894;SDS011;33653;52.302;8.134;2023-08-07T08:38:49;4.75;;;1.77;;
47894;SDS011;33653;52.302;8.134;2023-08-07T08:41:19;6.88;;;2.05;;
47894;SDS011;33653;52.302;8.134;2023-08-07T08:43:47;4.97;;;1.75;;
47894;SDS011;33653;52.302;8.134;2023-08-07T08:46:20;3.92;;;1.63;;
47894;SDS011;33653;52.302;8.134;2023-08-07T08:48:50;8.25;;;1.80;;
47894;SDS011;33653;52.302;8.134;2023-08-07T08:51:19;3.97;;;1.75;;
47894;SDS011;33653;52.302;8.134;2023-08-07T08:53:50;3.33;;;1.17;;
47894;SDS011;33653;52.302;8.134;2023-08-07T08:56:23;4.18;;;1.38;;
47894;SDS011;33653;52.302;8.134;2023-08-07T08:58:52;3.00;;;1.13;;
47894;SDS011;33653;52.302;8.134;2023-08-07T09:01:20;2.15;;;1.10;;
47894;SDS011;33653;52.302;8.134;2023-08-07T09:03:53;2.47;;;1.40;;
47894;SDS011;33653;52.302;8.134;2023-08-07T09:06:23;6.90;;;1.83;;
47894;SDS011;33653;52.302;8.134;2023-08-07T09:08:53;4.05;;;1.60;;
47894;SDS011;33653;52.302;8.134;2023-08-07T09:11:22;5.18;;;1.40;;
47894;SDS011;33653;52.302;8.134;2023-08-07T09:13:51;7.72;;;1.75;;
47894;SDS011;33653;52.302;8.134;2023-08-07T09:16:24;4.13;;;1.38;;
47894;SDS011;33653;52.302;8.134;2023-08-07T09:18:54;3.72;;;1.33;;
47894;SDS011;33653;52.302;8.134;2023-08-07T09:21:22;5.45;;;1.35;;
47894;SDS011;33653;52.302;8.134;2023-08-07T09:23:51;8.05;;;1.80;;
47894;SDS011;33653;52.302;8.134;2023-08-07T09:26:23;3.80;;;1.90;;
47894;SDS011;33653;52.302;8.134;2023-08-07T09:28:54;4.05;;;1.63;;
47894;SDS011;33653;52.302;8.134;2023-08-07T09:31:23;5.47;;;1.70;;
47894;SDS011;33653;52.302;8.134;2023-08-07T09:33:53;1.70;;;1.13;;
47894;SDS011;33653;52.302;8.134;2023-08-07T09:36:23;2.25;;;1.48;;
47894;SDS011;33653;52.302;8.134;2023-08-07T09:38:51;3.40;;;1.60;;
47894;SDS011;33653;52.302;8.134;2023-08-07T09:41:22;2.47;;;1.17;;
47894;SDS011;33653;52.302;8.134;2023-08-07T09:43:50;5.15;;;1.23;;
47894;SDS011;33653;52.302;8.134;2023-08-07T09:46:18;5.03;;;1.30;;
47894;SDS011;33653;52.302;8.134;2023-08-07T09:48:47;4.80;;;1.70;;
47894;SDS011;33653;52.302;8.134;2023-08-07T09:51:15;1.98;;;1.02;;
47894;SDS011;33653;52.302;8.134;2023-08-07T09:53:43;2.15;;;1.20;;
47894;SDS011;33653;52.302;8.134;2023-08-07T09:56:17;8.05;;;1.30;;
47894;SDS011;33653;52.302;8.134;2023-08-07T09:58:46;2.95;;;0.90;;
47894;SDS011;33653;52.302;8.134;2023-08-07T10:01:16;3.03;;;1.48;;
47894;SDS011;33653;52.302;8.134;2023-08-07T10:03:44;2.97;;;1.35;;
47894;SDS011;33653;52.302;8.134;2023-08-07T10:06:13;5.63;;;1.42;;
47894;SDS011;33653;52.302;8.134;2023-08-07T10:08:42;2.40;;;1.08;;
47894;SDS011;33653;52.302;8.134;2023-08-07T10:11:12;2.35;;;1.00;;
47894;SDS011;33653;52.302;8.134;2023-08-07T10:13:44;5.03;;;1.23;;
47894;SDS011;33653;52.302;8.134;2023-08-07T10:16:13;1.63;;;1.02;;
47894;SDS011;33653;52.302;8.134;2023-08-07T10:18:42;3.08;;;1.42;;
47894;SDS011;33653;52.302;8.134;2023-08-07T10:21:10;2.50;;;1.35;;
47894;SDS011;33653;52.302;8.134;2023-08-07T10:23:39;6.10;;;1.10;;
47894;SDS011;33653;52.302;8.134;2023-08-07T10:26:08;1.85;;;1.30;;
47894;SDS011;33653;52.302;8.134;2023-08-07T10:28:38;1.40;;;0.90;;
47894;SDS011;33653;52.302;8.134;2023-08-07T10:31:07;1.90;;;1.30;;
47894;SDS011;33653;52.302;8.134;2023-08-07T10:33:37;4.85;;;1.38;;
47894;SDS011;33653;52.302;8.134;2023-08-07T10:36:09;5.85;;;1.25;;
47894;SDS011;33653;52.302;8.134;2023-08-07T10:38:38;6.88;;;1.60;;
47894;SDS011;33653;52.302;8.134;2023-08-07T10:41:10;2.05;;;1.20;;
47894;SDS011;33653;52.302;8.134;2023-08-07T10:43:42;2.00;;;0.90;;
47894;SDS011;33653;52.302;8.134;2023-08-07T10:46:12;5.78;;;1.60;;
47894;SDS011;33653;52.302;8.134;2023-08-07T10:48:55;5.03;;;1.63;;
47894;SDS011;33653;52.302;8.134;2023-08-07T10:51:29;1.30;;;1.13;;
47894;SDS011;33653;52.302;8.134;2023-08-07T10:53:58;2.72;;;1.08;;
47894;SDS011;33653;52.302;8.134;2023-08-07T10:56:32;2.15;;;1.35;;
47894;SDS011;33653;52.302;8.134;2023-08-07T10:59:08;3.10;;;1.60;;
47894;SDS011;33653;52.302;8.134;2023-08-07T11:04:10;6.18;;;1.58;;
47894;SDS011;33653;52.302;8.134;2023-08-07T11:06:43;4.00;;;1.73;;
47894;SDS011;33653;52.302;8.134;2023-08-07T11:09:15;3.00;;;1.60;;
47894;SDS011;33653;52.302;8.134;2023-08-07T11:11:47;3.97;;;1.63;;
47894;SDS011;33653;52.302;8.134;2023-08-07T11:14:17;6.55;;;2.38;;
47894;SDS011;33653;52.302;8.134;2023-08-07T11:16:47;6.65;;;2.03;;
47894;SDS011;33653;52.302;8.134;2023-08-07T11:19:16;2.70;;;1.60;;
47894;SDS011;33653;52.302;8.134;2023-08-07T11:21:48;4.03;;;1.70;;
47894;SDS011;33653;52.302;8.134;2023-08-07T11:24:17;6.70;;;1.90;;
47894;SDS011;33653;52.302;8.134;2023-08-07T11:26:48;7.72;;;2.17;;
47894;SDS011;33653;52.302;8.134;2023-08-07T11:29:18;4.57;;;1.50;;
47894;SDS011;33653;52.302;8.134;2023-08-07T11:31:46;5.07;;;1.75;;
47894;SDS011;33653;52.302;8.134;2023-08-07T11:34:19;4.47;;;1.20;;
47894;SDS011;33653;52.302;8.134;2023-08-07T11:36:48;3.75;;;2.05;;
47894;SDS011;33653;52.302;8.134;2023-08-07T11:39:16;4.30;;;1.92;;
47894;SDS011;33653;52.302;8.134;2023-08-07T11:41:46;4.93;;;1.95;;
47894;SDS011;33653;52.302;8.134;2023-08-07T11:44:19;4.65;;;1.45;;
47894;SDS011;33653;52.302;8.134;2023-08-07T11:46:47;4.60;;;1.60;;
47894;SDS011;33653;52.302;8.134;2023-08-07T11:49:18;3.03;;;1.33;;
47894;SDS011;33653;52.302;8.134;2023-08-07T11:51:47;2.30;;;1.30;;
47894;SDS011;33653;52.302;8.134;2023-08-07T11:54:17;5.27;;;1.80;;
47894;SDS011;33653;52.302;8.134;2023-08-07T11:56:45;7.20;;;2.00;;
47894;SDS011;33653;52.302;8.134;2023-08-07T11:59:16;6.18;;;1.83;;
47894;SDS011;33653;52.302;8.134;2023-08-07T12:01:46;3.80;;;1.38;;
47894;SDS011;33653;52.302;8.134;2023-08-07T12:04:14;4.07;;;1.70;;
47894;SDS011;33653;52.302;8.134;2023-08-07T12:06:55;5.07;;;1.50;;
47894;SDS011;33653;52.302;8.134;2023-08-07T12:09:27;5.22;;;1.30;;
47894;SDS011;33653;52.302;8.134;2023-08-07T12:11:59;7.40;;;2.25;;
47894;SDS011;33653;52.302;8.134;2023-08-07T12:14:28;6.18;;;1.50;;
47894;SDS011;33653;52.302;8.134;2023-08-07T12:16:57;7.82;;;1.60;;
47894;SDS011;33653;52.302;8.134;2023-08-07T12:19:35;4.65;;;2.00;;
47894;SDS011;33653;52.302;8.134;2023-08-07T12:22:06;4.00;;;1.60;;
47894;SDS011;33653;52.302;8.134;2023-08-07T12:24:35;3.05;;;1.77;;
47894;SDS011;33653;52.302;8.134;2023-08-07T12:27:04;8.35;;;2.10;;
47894;SDS011;33653;52.302;8.134;2023-08-07T12:29:34;5.40;;;1.40;;
47894;SDS011;33653;52.302;8.134;2023-08-07T12:32:03;3.58;;;2.00;;
47894;SDS011;33653;52.302;8.134;2023-08-07T12:34:32;2.47;;;1.40;;
47894;SDS011;33653;52.302;8.134;2023-08-07T12:37:02;3.97;;;1.40;;
47894;SDS011;33653;52.302;8.134;2023-08-07T12:39:31;3.47;;;1.80;;
47894;SDS011;33653;52.302;8.134;2023-08-07T12:42:02;3.45;;;1.48;;
47894;SDS011;33653;52.302;8.134;2023-08-07T12:44:35;3.00;;;1.20;;
47894;SDS011;33653;52.302;8.134;2023-08-07T12:47:03;4.95;;;1.58;;
47894;SDS011;33653;52.302;8.134;2023-08-07T12:49:32;3.42;;;1.60;;
47894;SDS011;33653;52.302;8.134;2023-08-07T12:52:01;3.65;;;1.60;;
47894;SDS011;33653;52.302;8.134;2023-08-07T12:54:31;3.87;;;1.30;;
47894;SDS011;33653;52.302;8.134;2023-08-07T12:56:59;7.90;;;2.15;;
47894;SDS011;33653;52.302;8.134;2023-08-07T12:59:27;5.88;;;1.80;;
47894;SDS011;33653;52.302;8.134;2023-08-07T13:01:56;2.70;;;1.38;;
47894;SDS011;33653;52.302;8.134;2023-08-07T13:04:25;4.28;;;1.55;;
47894;SDS011;33653;52.302;8.134;2023-08-07T13:06:53;2.00;;;1.23;;
47894;SDS011;33653;52.302;8.134;2023-08-07T13:09:23;3.83;;;1.52;;
47894;SDS011;33653;52.302;8.134;2023-08-07T13:11:51;8.15;;;1.38;;
47894;SDS011;33653;52.302;8.134;2023-08-07T13:14:20;4.05;;;1.42;;
47894;SDS011;33653;52.302;8.134;2023-08-07T13:16:49;2.72;;;1.58;;
47894;SDS011;33653;52.302;8.134;2023-08-07T13:19:18;3.58;;;1.45;;
47894;SDS011;33653;52.302;8.134;2023-08-07T13:21:47;5.95;;;1.60;;
47894;SDS011;33653;52.302;8.134;2023-08-07T13:24:16;7.25;;;1.48;;
47894;SDS011;33653;52.302;8.134;2023-08-07T13:26:45;4.05;;;1.10;;
47894;SDS011;33653;52.302;8.134;2023-08-07T13:29:13;3.17;;;1.38;;
47894;SDS011;33653;52.302;8.134;2023-08-07T13:31:42;3.63;;;1.33;;
47894;SDS011;33653;52.302;8.134;2023-08-07T13:34:13;2.95;;;1.30;;
47894;SDS011;33653;52.302;8.134;2023-08-07T13:36:41;1.98;;;1.20;;
47894;SDS011;33653;52.302;8.134;2023-08-07T13:39:10;3.13;;;1.15;;
47894;SDS011;33653;52.302;8.134;2023-08-07T13:41:38;6.22;;;1.63;;
47894;SDS011;33653;52.302;8.134;2023-08-07T13:44:07;4.75;;;1.45;;
47894;SDS011;33653;52.302;8.134;2023-08-07T13:46:35;2.72;;;1.42;;
47894;SDS011;33653;52.302;8.134;2023-08-07T13:49:04;3.42;;;1.27;;
47894;SDS011;33653;52.302;8.134;2023-08-07T13:51:32;2.20;;;1.27;;
47894;SDS011;33653;52.302;8.134;2023-08-07T13:54:02;2.00;;;1.15;;
47894;SDS011;33653;52.302;8.134;2023-08-07T13:56:30;5.85;;;1.65;;
47894;SDS011;33653;52.302;8.134;2023-08-07T13:58:59;3.28;;;1.58;;
47894;SDS011;33653;52.302;8.134;2023-08-07T14:01:28;2.88;;;1.67;;
47894;SDS011;33653;52.302;8.134;2023-08-07T14:03:56;2.67;;;1.40;;
47894;SDS011;33653;52.302;8.134;2023-08-07T14:06:26;2.60;;;1.33;;
47894;SDS011;33653;52.302;8.134;2023-08-07T14:08:54;3.83;;;1.27;;
47894;SDS011;33653;52.302;8.134;2023-08-07T14:11:23;2.95;;;1.27;;
47894;SDS011;33653;52.302;8.134;2023-08-07T14:13:57;3.03;;;1.05;;
47894;SDS011;33653;52.302;8.134;2023-08-07T14:16:25;1.38;;;0.95;;
47894;SDS011;33653;52.302;8.134;2023-08-07T14:18:53;2.85;;;1.00;;
47894;SDS011;33653;52.302;8.134;2023-08-07T14:21:22;3.40;;;1.38;;
47894;SDS011;33653;52.302;8.134;2023-08-07T14:23:51;1.67;;;1.10;;
47894;SDS011;33653;52.302;8.134;2023-08-07T14:26:19;1.75;;;1.10;;
47894;SDS011;33653;52.302;8.134;2023-08-07T14:28:48;4.25;;;1.40;;
47894;SDS011;33653;52.302;8.134;2023-08-07T14:31:16;3.15;;;1.40;;
47894;SDS011;33653;52.302;8.134;2023-08-07T14:33:45;4.38;;;1.40;;
47894;SDS011;33653;52.302;8.134;2023-08-07T14:36:13;3.42;;;1.30;;
47894;SDS011;33653;52.302;8.134;2023-08-07T14:38:42;2.78;;;1.65;;
47894;SDS011;33653;52.302;8.134;2023-08-07T14:41:10;3.05;;;1.00;;
47894;SDS011;33653;52.302;8.134;2023-08-07T14:43:38;2.72;;;1.10;;
47894;SDS011;33653;52.302;8.134;2023-08-07T14:46:07;4.82;;;1.98;;
47894;SDS011;33653;52.302;8.134;2023-08-07T14:48:35;2.08;;;1.73;;
47894;SDS011;33653;52.302;8.134;2023-08-07T14:51:03;1.40;;;1.20;;
47894;SDS011;33653;52.302;8.134;2023-08-07T14:53:32;3.85;;;1.48;;
47894;SDS011;33653;52.302;8.134;2023-08-07T14:56:02;6.50;;;1.40;;
47894;SDS011;33653;52.302;8.134;2023-08-07T14:58:31;2.15;;;1.05;;
47894;SDS011;33653;52.302;8.134;2023-08-07T15:00:59;3.55;;;1.42;;
47894;SDS011;33653;52.302;8.134;2023-08-07T15:03:28;5.80;;;1.70;;
47894;SDS011;33653;52.302;8.134;2023-08-07T15:05:56;4.60;;;1.90;;